sensor_id;sensor_type;location;lat;lon;timestamp;pressure;altitude;pressure_sealevel;temperature;humidity
22333;BME280;11334;36.986;-121.936;2023-07-28T00:01:48;101066.06;;;32.47;34.21
22333;BME280;11334;36.986;-121.936;2023-07-28T00:04:14;101064.28;;;32.56;34.58
22333;BME280;11334;36.986;-121.936;2023-07-28T00:06:40;101070.31;;;32.58;34.13
22333;BME280;11334;36.986;-121.936;2023-07-28T00:09:06;101057.25;;;32.91;33.86
22333;BME280;11334;36.986;-121.936;2023-07-28T00:11:32;101065.75;;;32.95;34.31
22333;BME280;11334;36.986;-121.936;2023-07-28T00:13:59;101059.59;;;33.03;34.24
22333;BME280;11334;36.986;-121.936;2023-07-28T00:16:25;101055.22;;;33.20;34.15
22333;BME280;11334;36.986;-121.936;2023-07-28T00:18:51;101054.84;;;33.31;34.01
22333;BME280;11334;36.986;-121.936;2023-07-28T00:21:17;101049.63;;;33.30;34.30
22333;BME280;11334;36.986;-121.936;2023-07-28T00:23:44;101052.03;;;33.68;34.07
22333;BME280;11334;36.986;-121.936;2023-07-28T00:26:10;101045.63;;;33.72;34.11
22333;BME280;11334;36.986;-121.936;2023-07-28T00:28:36;101052.94;;;33.81;33.60
22333;BME280;11334;36.986;-121.936;2023-07-28T00:31:02;101052.78;;;33.91;34.07
22333;BME280;11334;36.986;-121.936;2023-07-28T00:33:28;101054.53;;;34.01;33.93
22333;BME280;11334;36.986;-121.936;2023-07-28T00:35:55;101052.50;;;33.93;34.16
22333;BME280;11334;36.986;-121.936;2023-07-28T00:38:21;101045.97;;;34.02;33.86
22333;BME280;11334;36.986;-121.936;2023-07-28T00:40:47;101025.38;;;34.00;33.76
22333;BME280;11334;36.986;-121.936;2023-07-28T00:43:13;101043.09;;;34.39;33.22
22333;BME280;11334;36.986;-121.936;2023-07-28T00:45:40;101045.47;;;34.72;32.67
22333;BME280;11334;36.986;-121.936;2023-07-28T00:48:12;101046.13;;;34.82;32.75
22333;BME280;11334;36.986;-121.936;2023-07-28T00:50:41;101038.84;;;34.99;31.94
22333;BME280;11334;36.986;-121.936;2023-07-28T00:53:08;101038.28;;;35.10;32.19
22333;BME280;11334;36.986;-121.936;2023-07-28T00:55:34;101031.13;;;35.23;32.00
22333;BME280;11334;36.986;-121.936;2023-07-28T00:58:00;101047.34;;;35.37;30.97
22333;BME280;11334;36.986;-121.936;2023-07-28T01:00:27;101048.38;;;35.28;31.84
22333;BME280;11334;36.986;-121.936;2023-07-28T01:02:53;101050.78;;;35.78;30.40
22333;BME280;11334;36.986;-121.936;2023-07-28T01:05:22;101053.41;;;35.83;30.35
22333;BME280;11334;36.986;-121.936;2023-07-28T01:08:21;101062.50;;;36.05;29.95
22333;BME280;11334;36.986;-121.936;2023-07-28T01:10:50;101058.25;;;35.99;30.44
22333;BME280;11334;36.986;-121.936;2023-07-28T01:13:16;101065.22;;;35.97;30.14
22333;BME280;11334;36.986;-121.936;2023-07-28T01:15:43;101066.09;;;35.84;30.09
22333;BME280;11334;36.986;-121.936;2023-07-28T01:18:09;101058.91;;;36.04;30.59
22333;BME280;11334;36.986;-121.936;2023-07-28T01:20:38;101069.69;;;36.36;29.47
22333;BME280;11334;36.986;-121.936;2023-07-28T01:23:19;101066.25;;;36.31;29.96
22333;BME280;11334;36.986;-121.936;2023-07-28T01:26:12;101070.09;;;36.21;29.87
22333;BME280;11334;36.986;-121.936;2023-07-28T01:28:42;101072.31;;;36.11;29.52
22333;BME280;11334;36.986;-121.936;2023-07-28T01:31:09;101071.81;;;36.09;30.25
22333;BME280;11334;36.986;-121.936;2023-07-28T01:33:36;101076.00;;;35.85;30.59
22333;BME280;11334;36.986;-121.936;2023-07-28T01:36:02;101086.09;;;35.89;29.95
22333;BME280;11334;36.986;-121.936;2023-07-28T01:38:29;101082.34;;;35.64;30.00
22333;BME280;11334;36.986;-121.936;2023-07-28T01:40:55;101084.78;;;35.52;31.04
22333;BME280;11334;36.986;-121.936;2023-07-28T01:43:21;101090.19;;;35.22;30.98
22333;BME280;11334;36.986;-121.936;2023-07-28T01:45:48;101090.91;;;35.14;31.12
22333;BME280;11334;36.986;-121.936;2023-07-28T01:48:14;101085.91;;;34.76;31.82
22333;BME280;11334;36.986;-121.936;2023-07-28T01:50:40;101097.06;;;34.39;31.92
22333;BME280;11334;36.986;-121.936;2023-07-28T01:53:07;101094.06;;;33.91;32.55
22333;BME280;11334;36.986;-121.936;2023-07-28T01:55:33;101094.44;;;33.48;32.88
22333;BME280;11334;36.986;-121.936;2023-07-28T01:58:01;101103.44;;;33.12;33.73
22333;BME280;11334;36.986;-121.936;2023-07-28T02:00:28;101101.59;;;32.62;34.81
22333;BME280;11334;36.986;-121.936;2023-07-28T02:02:54;101098.63;;;32.25;34.99
22333;BME280;11334;36.986;-121.936;2023-07-28T02:05:21;101108.13;;;32.05;35.03
22333;BME280;11334;36.986;-121.936;2023-07-28T02:07:47;101101.50;;;32.11;35.57
22333;BME280;11334;36.986;-121.936;2023-07-28T02:10:13;101110.47;;;32.21;35.07
22333;BME280;11334;36.986;-121.936;2023-07-28T02:12:40;101112.63;;;32.24;34.79
22333;BME280;11334;36.986;-121.936;2023-07-28T02:15:06;101126.81;;;32.36;35.05
22333;BME280;11334;36.986;-121.936;2023-07-28T02:17:33;101124.53;;;32.71;34.65
22333;BME280;11334;36.986;-121.936;2023-07-28T02:19:59;101120.09;;;32.75;34.52
22333;BME280;11334;36.986;-121.936;2023-07-28T02:22:28;101127.91;;;32.40;35.01
22333;BME280;11334;36.986;-121.936;2023-07-28T02:24:54;101129.00;;;32.06;35.16
22333;BME280;11334;36.986;-121.936;2023-07-28T02:27:20;101123.75;;;31.71;35.82
22333;BME280;11334;36.986;-121.936;2023-07-28T02:29:46;101134.44;;;31.20;36.40
22333;BME280;11334;36.986;-121.936;2023-07-28T02:32:13;101129.16;;;30.51;37.38
22333;BME280;11334;36.986;-121.936;2023-07-28T02:34:39;101136.81;;;29.70;39.37
22333;BME280;11334;36.986;-121.936;2023-07-28T02:37:06;101135.44;;;29.02;40.46
22333;BME280;11334;36.986;-121.936;2023-07-28T02:39:32;101136.19;;;28.47;41.13
22333;BME280;11334;36.986;-121.936;2023-07-28T02:41:58;101130.44;;;27.82;42.37
22333;BME280;11334;36.986;-121.936;2023-07-28T02:44:25;101136.44;;;27.10;44.05
22333;BME280;11334;36.986;-121.936;2023-07-28T02:46:51;101132.28;;;26.82;45.27
22333;BME280;11334;36.986;-121.936;2023-07-28T02:49:18;101147.66;;;26.39;46.77
22333;BME280;11334;36.986;-121.936;2023-07-28T02:51:44;101151.97;;;25.91;47.97
22333;BME280;11334;36.986;-121.936;2023-07-28T02:54:10;101150.44;;;25.40;49.02
22333;BME280;11334;36.986;-121.936;2023-07-28T02:56:37;101154.66;;;25.20;49.60
22333;BME280;11334;36.986;-121.936;2023-07-28T02:59:04;101154.25;;;24.77;51.42
22333;BME280;11334;36.986;-121.936;2023-07-28T03:01:31;101155.91;;;24.67;51.11
22333;BME280;11334;36.986;-121.936;2023-07-28T03:04:01;101164.66;;;24.35;52.67
22333;BME280;11334;36.986;-121.936;2023-07-28T03:06:28;101164.94;;;24.16;53.90
22333;BME280;11334;36.986;-121.936;2023-07-28T03:08:54;101159.53;;;24.05;54.00
22333;BME280;11334;36.986;-121.936;2023-07-28T03:11:21;101161.94;;;23.83;54.94
22333;BME280;11334;36.986;-121.936;2023-07-28T03:13:47;101161.94;;;23.72;55.51
22333;BME280;11334;36.986;-121.936;2023-07-28T03:16:13;101154.09;;;23.53;55.88
22333;BME280;11334;36.986;-121.936;2023-07-28T03:18:39;101157.66;;;23.47;56.79
22333;BME280;11334;36.986;-121.936;2023-07-28T03:21:06;101154.53;;;23.32;57.22
22333;BME280;11334;36.986;-121.936;2023-07-28T03:23:32;101160.81;;;23.15;58.43
22333;BME280;11334;36.986;-121.936;2023-07-28T03:25:58;101167.34;;;23.08;58.43
22333;BME280;11334;36.986;-121.936;2023-07-28T03:28:24;101164.03;;;22.88;59.39
22333;BME280;11334;36.986;-121.936;2023-07-28T03:30:51;101170.16;;;22.83;59.39
22333;BME280;11334;36.986;-121.936;2023-07-28T03:33:17;101159.81;;;22.74;59.72
22333;BME280;11334;36.986;-121.936;2023-07-28T03:35:43;101164.91;;;22.64;60.13
22333;BME280;11334;36.986;-121.936;2023-07-28T03:38:09;101161.94;;;22.30;61.72
22333;BME280;11334;36.986;-121.936;2023-07-28T03:40:36;101164.88;;;22.29;61.68
22333;BME280;11334;36.986;-121.936;2023-07-28T03:43:03;101171.41;;;22.15;62.32
22333;BME280;11334;36.986;-121.936;2023-07-28T03:45:29;101171.00;;;21.87;63.46
22333;BME280;11334;36.986;-121.936;2023-07-28T03:47:55;101168.56;;;21.80;63.75
22333;BME280;11334;36.986;-121.936;2023-07-28T03:50:22;101176.53;;;21.62;64.32
22333;BME280;11334;36.986;-121.936;2023-07-28T03:52:50;101160.63;;;21.54;64.61
22333;BME280;11334;36.986;-121.936;2023-07-28T03:55:16;101174.28;;;21.59;64.84
22333;BME280;11334;36.986;-121.936;2023-07-28T03:57:42;101174.00;;;21.43;65.72
22333;BME280;11334;36.986;-121.936;2023-07-28T04:00:09;101169.22;;;21.38;65.93
22333;BME280;11334;36.986;-121.936;2023-07-28T04:02:36;101179.81;;;21.40;65.70
22333;BME280;11334;36.986;-121.936;2023-07-28T04:05:02;101177.34;;;21.25;66.64
22333;BME280;11334;36.986;-121.936;2023-07-28T04:07:28;101177.44;;;21.13;66.86
22333;BME280;11334;36.986;-121.936;2023-07-28T04:09:54;101189.03;;;21.13;67.29
22333;BME280;11334;36.986;-121.936;2023-07-28T04:12:20;101199.84;;;21.00;67.90
22333;BME280;11334;36.986;-121.936;2023-07-28T04:14:47;101188.09;;;20.82;68.85
22333;BME280;11334;36.986;-121.936;2023-07-28T04:17:13;101196.97;;;20.83;68.90
22333;BME280;11334;36.986;-121.936;2023-07-28T04:19:39;101193.03;;;20.85;68.81
22333;BME280;11334;36.986;-121.936;2023-07-28T04:22:06;101196.41;;;20.81;69.15
22333;BME280;11334;36.986;-121.936;2023-07-28T04:24:33;101193.50;;;20.69;69.66
22333;BME280;11334;36.986;-121.936;2023-07-28T04:27:00;101196.81;;;20.46;70.71
22333;BME280;11334;36.986;-121.936;2023-07-28T04:29:26;101201.38;;;20.58;70.44
22333;BME280;11334;36.986;-121.936;2023-07-28T04:31:53;101202.63;;;20.62;70.31
22333;BME280;11334;36.986;-121.936;2023-07-28T04:34:20;101192.69;;;20.62;70.26
22333;BME280;11334;36.986;-121.936;2023-07-28T04:36:46;101195.38;;;20.50;70.82
22333;BME280;11334;36.986;-121.936;2023-07-28T04:39:12;101211.75;;;20.42;70.07
22333;BME280;11334;36.986;-121.936;2023-07-28T04:41:38;101202.03;;;20.34;69.65
22333;BME280;11334;36.986;-121.936;2023-07-28T04:44:05;101204.69;;;20.28;69.60
22333;BME280;11334;36.986;-121.936;2023-07-28T04:46:31;101200.16;;;20.22;69.85
22333;BME280;11334;36.986;-121.936;2023-07-28T04:48:57;101216.31;;;20.22;70.01
22333;BME280;11334;36.986;-121.936;2023-07-28T04:51:23;101214.25;;;20.11;70.22
22333;BME280;11334;36.986;-121.936;2023-07-28T04:53:50;101211.34;;;20.13;70.39
22333;BME280;11334;36.986;-121.936;2023-07-28T04:56:16;101215.88;;;20.06;70.18
22333;BME280;11334;36.986;-121.936;2023-07-28T04:58:42;101208.22;;;19.90;70.79
22333;BME280;11334;36.986;-121.936;2023-07-28T05:01:08;101211.47;;;19.73;71.85
22333;BME280;11334;36.986;-121.936;2023-07-28T05:03:35;101213.50;;;19.71;71.46
22333;BME280;11334;36.986;-121.936;2023-07-28T05:06:03;101221.16;;;19.67;71.99
22333;BME280;11334;36.986;-121.936;2023-07-28T05:08:30;101217.44;;;19.68;72.09
22333;BME280;11334;36.986;-121.936;2023-07-28T05:10:56;101218.66;;;19.66;72.36
22333;BME280;11334;36.986;-121.936;2023-07-28T05:13:23;101230.84;;;19.56;72.43
22333;BME280;11334;36.986;-121.936;2023-07-28T05:15:49;101230.19;;;19.41;72.55
22333;BME280;11334;36.986;-121.936;2023-07-28T05:18:15;101234.50;;;19.35;72.42
22333;BME280;11334;36.986;-121.936;2023-07-28T05:20:41;101236.38;;;19.35;73.09
22333;BME280;11334;36.986;-121.936;2023-07-28T05:23:08;101236.38;;;19.35;73.01
22333;BME280;11334;36.986;-121.936;2023-07-28T05:25:34;101229.09;;;19.23;73.67
22333;BME280;11334;36.986;-121.936;2023-07-28T05:28:00;101224.94;;;19.20;73.72
22333;BME280;11334;36.986;-121.936;2023-07-28T05:30:26;101231.31;;;19.19;73.46
22333;BME280;11334;36.986;-121.936;2023-07-28T05:32:54;101230.22;;;19.07;73.91
22333;BME280;11334;36.986;-121.936;2023-07-28T05:35:20;101233.13;;;19.06;73.94
22333;BME280;11334;36.986;-121.936;2023-07-28T05:37:47;101233.28;;;18.98;74.53
22333;BME280;11334;36.986;-121.936;2023-07-28T05:40:13;101239.16;;;18.87;74.95
22333;BME280;11334;36.986;-121.936;2023-07-28T05:42:39;101230.88;;;18.82;74.77
22333;BME280;11334;36.986;-121.936;2023-07-28T05:45:06;101241.31;;;18.92;74.62
22333;BME280;11334;36.986;-121.936;2023-07-28T05:47:32;101255.09;;;18.89;74.15
22333;BME280;11334;36.986;-121.936;2023-07-28T05:49:58;101243.09;;;18.85;74.51
22333;BME280;11334;36.986;-121.936;2023-07-28T05:52:25;101244.13;;;18.84;74.82
22333;BME280;11334;36.986;-121.936;2023-07-28T05:54:51;101260.00;;;18.79;74.96
22333;BME280;11334;36.986;-121.936;2023-07-28T05:57:18;101253.06;;;18.64;75.53
22333;BME280;11334;36.986;-121.936;2023-07-28T05:59:44;101238.34;;;18.53;76.52
22333;BME280;11334;36.986;-121.936;2023-07-28T06:02:10;101245.34;;;18.54;76.41
22333;BME280;11334;36.986;-121.936;2023-07-28T06:04:36;101240.06;;;18.61;76.11
22333;BME280;11334;36.986;-121.936;2023-07-28T06:07:03;101243.91;;;18.52;75.91
22333;BME280;11334;36.986;-121.936;2023-07-28T06:09:29;101240.78;;;18.48;76.44
22333;BME280;11334;36.986;-121.936;2023-07-28T06:11:55;101227.84;;;18.31;77.29
22333;BME280;11334;36.986;-121.936;2023-07-28T06:14:21;101231.22;;;18.39;77.56
22333;BME280;11334;36.986;-121.936;2023-07-28T06:16:48;101232.56;;;18.29;78.14
22333;BME280;11334;36.986;-121.936;2023-07-28T06:19:14;101227.97;;;18.23;78.32
22333;BME280;11334;36.986;-121.936;2023-07-28T06:21:42;101223.19;;;18.19;78.07
22333;BME280;11334;36.986;-121.936;2023-07-28T06:24:08;101220.63;;;18.11;78.50
22333;BME280;11334;36.986;-121.936;2023-07-28T06:26:35;101226.22;;;18.09;78.78
22333;BME280;11334;36.986;-121.936;2023-07-28T06:29:01;101209.03;;;18.04;78.37
22333;BME280;11334;36.986;-121.936;2023-07-28T06:31:27;101225.75;;;18.06;78.46
22333;BME280;11334;36.986;-121.936;2023-07-28T06:33:53;101221.28;;;18.13;77.99
22333;BME280;11334;36.986;-121.936;2023-07-28T06:36:19;101219.81;;;18.10;77.93
22333;BME280;11334;36.986;-121.936;2023-07-28T06:38:46;101229.47;;;18.05;78.40
22333;BME280;11334;36.986;-121.936;2023-07-28T06:41:14;101221.06;;;17.94;78.14
22333;BME280;11334;36.986;-121.936;2023-07-28T06:43:40;101231.00;;;17.79;78.74
22333;BME280;11334;36.986;-121.936;2023-07-28T06:46:07;101232.88;;;17.78;78.34
22333;BME280;11334;36.986;-121.936;2023-07-28T06:48:33;101233.06;;;17.77;78.61
22333;BME280;11334;36.986;-121.936;2023-07-28T06:50:59;101235.94;;;17.75;78.17
22333;BME280;11334;36.986;-121.936;2023-07-28T06:53:25;101237.91;;;17.67;78.41
22333;BME280;11334;36.986;-121.936;2023-07-28T06:55:52;101232.94;;;17.64;78.87
22333;BME280;11334;36.986;-121.936;2023-07-28T06:58:18;101230.09;;;17.51;79.48
22333;BME280;11334;36.986;-121.936;2023-07-28T07:00:45;101229.16;;;17.59;79.61
22333;BME280;11334;36.986;-121.936;2023-07-28T07:03:11;101226.47;;;17.59;79.42
22333;BME280;11334;36.986;-121.936;2023-07-28T07:05:38;101229.16;;;17.59;79.68
22333;BME280;11334;36.986;-121.936;2023-07-28T07:08:04;101234.88;;;17.56;80.21
22333;BME280;11334;36.986;-121.936;2023-07-28T07:10:31;101231.69;;;17.46;80.77
22333;BME280;11334;36.986;-121.936;2023-07-28T07:12:57;101233.53;;;17.45;81.07
22333;BME280;11334;36.986;-121.936;2023-07-28T07:15:23;101218.91;;;17.27;81.73
22333;BME280;11334;36.986;-121.936;2023-07-28T07:17:50;101230.63;;;17.26;81.78
22333;BME280;11334;36.986;-121.936;2023-07-28T07:20:16;101239.47;;;17.27;81.63
22333;BME280;11334;36.986;-121.936;2023-07-28T07:22:43;101234.88;;;17.21;82.22
22333;BME280;11334;36.986;-121.936;2023-07-28T07:25:09;101236.91;;;17.19;82.91
22333;BME280;11334;36.986;-121.936;2023-07-28T07:27:35;101228.03;;;17.18;83.28
22333;BME280;11334;36.986;-121.936;2023-07-28T07:30:02;101241.50;;;17.10;83.32
22333;BME280;11334;36.986;-121.936;2023-07-28T07:32:29;101234.31;;;17.11;83.30
22333;BME280;11334;36.986;-121.936;2023-07-28T07:34:56;101242.06;;;17.06;82.82
22333;BME280;11334;36.986;-121.936;2023-07-28T07:37:22;101241.13;;;16.99;83.36
22333;BME280;11334;36.986;-121.936;2023-07-28T07:39:48;101241.50;;;16.96;83.75
22333;BME280;11334;36.986;-121.936;2023-07-28T07:42:16;101239.66;;;16.97;83.45
22333;BME280;11334;36.986;-121.936;2023-07-28T07:44:42;101235.50;;;16.94;82.68
22333;BME280;11334;36.986;-121.936;2023-07-28T07:47:15;101236.44;;;16.87;82.38
22333;BME280;11334;36.986;-121.936;2023-07-28T07:49:42;101227.94;;;16.83;83.43
22333;BME280;11334;36.986;-121.936;2023-07-28T07:52:09;101214.84;;;16.74;83.93
22333;BME280;11334;36.986;-121.936;2023-07-28T07:54:35;101219.66;;;16.78;83.57
22333;BME280;11334;36.986;-121.936;2023-07-28T07:57:02;101233.69;;;16.80;83.33
22333;BME280;11334;36.986;-121.936;2023-07-28T07:59:29;101227.69;;;16.78;82.93
22333;BME280;11334;36.986;-121.936;2023-07-28T08:01:58;101224.72;;;16.74;82.91
22333;BME280;11334;36.986;-121.936;2023-07-28T08:04:26;101223.41;;;16.70;83.08
22333;BME280;11334;36.986;-121.936;2023-07-28T08:06:54;101215.66;;;16.75;82.81
22333;BME280;11334;36.986;-121.936;2023-07-28T08:09:20;101208.94;;;16.64;82.23
22333;BME280;11334;36.986;-121.936;2023-07-28T08:11:46;101220.56;;;16.57;83.01
22333;BME280;11334;36.986;-121.936;2023-07-28T08:14:12;101216.31;;;16.62;83.00
22333;BME280;11334;36.986;-121.936;2023-07-28T08:16:39;101206.44;;;16.63;83.67
22333;BME280;11334;36.986;-121.936;2023-07-28T08:19:05;101197.78;;;16.61;83.77
22333;BME280;11334;36.986;-121.936;2023-07-28T08:21:31;101201.28;;;16.61;84.00
22333;BME280;11334;36.986;-121.936;2023-07-28T08:24:03;101192.31;;;16.54;84.21
22333;BME280;11334;36.986;-121.936;2023-07-28T08:26:30;101191.94;;;16.43;84.77
22333;BME280;11334;36.986;-121.936;2023-07-28T08:28:56;101203.81;;;16.41;84.83
22333;BME280;11334;36.986;-121.936;2023-07-28T08:31:22;101196.47;;;16.28;85.45
22333;BME280;11334;36.986;-121.936;2023-07-28T08:33:49;101204.09;;;16.31;85.41
22333;BME280;11334;36.986;-121.936;2023-07-28T08:36:15;101200.25;;;16.34;85.67
22333;BME280;11334;36.986;-121.936;2023-07-28T08:38:44;101199.19;;;16.20;85.47
22333;BME280;11334;36.986;-121.936;2023-07-28T08:41:12;101203.34;;;16.23;85.06
22333;BME280;11334;36.986;-121.936;2023-07-28T08:43:39;101197.28;;;16.29;85.41
22333;BME280;11334;36.986;-121.936;2023-07-28T08:46:06;101198.75;;;16.31;85.32
22333;BME280;11334;36.986;-121.936;2023-07-28T08:48:32;101192.09;;;16.27;85.62
22333;BME280;11334;36.986;-121.936;2023-07-28T08:50:58;101189.97;;;16.23;85.33
22333;BME280;11334;36.986;-121.936;2023-07-28T08:53:24;101179.47;;;16.21;85.73
22333;BME280;11334;36.986;-121.936;2023-07-28T08:55:51;101183.34;;;16.19;85.98
22333;BME280;11334;36.986;-121.936;2023-07-28T08:58:19;101188.97;;;16.02;86.83
22333;BME280;11334;36.986;-121.936;2023-07-28T09:00:49;101180.31;;;16.00;87.26
22333;BME280;11334;36.986;-121.936;2023-07-28T09:03:19;101168.59;;;16.01;86.78
22333;BME280;11334;36.986;-121.936;2023-07-28T09:05:47;101167.97;;;15.99;86.49
22333;BME280;11334;36.986;-121.936;2023-07-28T09:08:16;101171.34;;;15.93;86.76
22333;BME280;11334;36.986;-121.936;2023-07-28T09:10:47;101166.38;;;15.90;86.78
22333;BME280;11334;36.986;-121.936;2023-07-28T09:13:17;101157.59;;;15.96;87.13
22333;BME280;11334;36.986;-121.936;2023-07-28T09:15:44;101164.72;;;15.89;87.50
22333;BME280;11334;36.986;-121.936;2023-07-28T09:18:17;101160.72;;;15.85;87.44
22333;BME280;11334;36.986;-121.936;2023-07-28T09:20:44;101148.63;;;15.75;87.15
22333;BME280;11334;36.986;-121.936;2023-07-28T09:23:12;101160.97;;;15.76;87.19
22333;BME280;11334;36.986;-121.936;2023-07-28T09:25:39;101152.13;;;15.75;88.18
22333;BME280;11334;36.986;-121.936;2023-07-28T09:28:05;101150.47;;;15.74;88.26
22333;BME280;11334;36.986;-121.936;2023-07-28T09:30:48;101158.66;;;15.73;87.99
22333;BME280;11334;36.986;-121.936;2023-07-28T09:33:32;101156.13;;;15.79;87.71
22333;BME280;11334;36.986;-121.936;2023-07-28T09:36:10;101158.28;;;15.76;87.64
22333;BME280;11334;36.986;-121.936;2023-07-28T09:38:38;101145.00;;;15.68;87.40
22333;BME280;11334;36.986;-121.936;2023-07-28T09:41:09;101150.81;;;15.71;86.75
22333;BME280;11334;36.986;-121.936;2023-07-28T09:43:40;101147.50;;;15.69;86.41
22333;BME280;11334;36.986;-121.936;2023-07-28T09:46:09;101137.16;;;15.66;86.10
22333;BME280;11334;36.986;-121.936;2023-07-28T09:48:42;101149.94;;;15.56;86.65
22333;BME280;11334;36.986;-121.936;2023-07-28T09:51:17;101142.22;;;15.61;86.06
22333;BME280;11334;36.986;-121.936;2023-07-28T09:53:52;101135.88;;;15.62;85.77
22333;BME280;11334;36.986;-121.936;2023-07-28T09:56:20;101128.53;;;15.42;86.39
22333;BME280;11334;36.986;-121.936;2023-07-28T09:58:52;101128.53;;;15.42;86.67
22333;BME280;11334;36.986;-121.936;2023-07-28T10:01:21;101138.84;;;15.45;86.52
22333;BME280;11334;36.986;-121.936;2023-07-28T10:03:50;101127.16;;;15.46;87.11
22333;BME280;11334;36.986;-121.936;2023-07-28T10:06:17;101127.97;;;15.47;86.70
22333;BME280;11334;36.986;-121.936;2023-07-28T10:08:45;101119.03;;;15.40;86.76
22333;BME280;11334;36.986;-121.936;2023-07-28T10:11:18;101113.56;;;15.33;86.58
22333;BME280;11334;36.986;-121.936;2023-07-28T10:13:46;101125.38;;;15.39;86.34
22333;BME280;11334;36.986;-121.936;2023-07-28T10:16:13;101126.97;;;15.25;87.08
22333;BME280;11334;36.986;-121.936;2023-07-28T10:18:54;101126.97;;;15.25;87.30
22333;BME280;11334;36.986;-121.936;2023-07-28T10:21:20;101133.78;;;15.28;87.53
22333;BME280;11334;36.986;-121.936;2023-07-28T10:23:54;101130.69;;;15.17;88.12
22333;BME280;11334;36.986;-121.936;2023-07-28T10:26:51;101134.97;;;15.25;88.46
22333;BME280;11334;36.986;-121.936;2023-07-28T10:29:23;101135.03;;;15.18;88.41
22333;BME280;11334;36.986;-121.936;2023-07-28T10:31:53;101129.22;;;15.06;87.14
22333;BME280;11334;36.986;-121.936;2023-07-28T10:34:22;101126.56;;;15.06;88.03
22333;BME280;11334;36.986;-121.936;2023-07-28T10:36:57;101126.16;;;15.17;88.18
22333;BME280;11334;36.986;-121.936;2023-07-28T10:39:24;101114.75;;;15.01;88.54
22333;BME280;11334;36.986;-121.936;2023-07-28T10:42:08;101121.38;;;15.13;88.55
22333;BME280;11334;36.986;-121.936;2023-07-28T10:44:35;101124.53;;;15.16;87.98
22333;BME280;11334;36.986;-121.936;2023-07-28T10:47:02;101120.88;;;15.09;88.01
22333;BME280;11334;36.986;-121.936;2023-07-28T10:49:33;101126.22;;;15.09;88.63
22333;BME280;11334;36.986;-121.936;2023-07-28T10:52:00;101128.09;;;15.01;87.90
22333;BME280;11334;36.986;-121.936;2023-07-28T10:54:26;101136.16;;;14.93;87.72
22333;BME280;11334;36.986;-121.936;2023-07-28T10:56:52;101138.00;;;14.92;87.95
22333;BME280;11334;36.986;-121.936;2023-07-28T10:59:18;101154.00;;;14.92;88.18
22333;BME280;11334;36.986;-121.936;2023-07-28T11:01:45;101158.84;;;14.89;89.17
22333;BME280;11334;36.986;-121.936;2023-07-28T11:04:13;101156.13;;;14.97;89.20
22333;BME280;11334;36.986;-121.936;2023-07-28T11:06:45;101151.81;;;14.96;88.78
22333;BME280;11334;36.986;-121.936;2023-07-28T11:09:12;101161.91;;;14.78;89.56
22333;BME280;11334;36.986;-121.936;2023-07-28T11:11:41;101161.41;;;14.75;90.37
22333;BME280;11334;36.986;-121.936;2023-07-28T11:14:08;101152.88;;;14.79;89.36
22333;BME280;11334;36.986;-121.936;2023-07-28T11:16:40;101146.88;;;14.85;88.38
22333;BME280;11334;36.986;-121.936;2023-07-28T11:19:09;101136.06;;;14.79;88.00
22333;BME280;11334;36.986;-121.936;2023-07-28T11:21:50;101147.53;;;14.79;88.82
22333;BME280;11334;36.986;-121.936;2023-07-28T11:24:20;101149.53;;;14.77;89.26
22333;BME280;11334;36.986;-121.936;2023-07-28T11:26:49;101140.41;;;14.72;88.79
22333;BME280;11334;36.986;-121.936;2023-07-28T11:29:16;101154.41;;;14.74;88.16
22333;BME280;11334;36.986;-121.936;2023-07-28T11:31:43;101148.59;;;14.70;88.66
22333;BME280;11334;36.986;-121.936;2023-07-28T11:34:19;101150.25;;;14.71;88.88
22333;BME280;11334;36.986;-121.936;2023-07-28T11:36:45;101161.78;;;14.64;89.40
22333;BME280;11334;36.986;-121.936;2023-07-28T11:39:12;101156.53;;;14.48;89.43
22333;BME280;11334;36.986;-121.936;2023-07-28T11:41:40;101162.28;;;14.59;89.14
22333;BME280;11334;36.986;-121.936;2023-07-28T11:44:07;101174.31;;;14.48;89.63
22333;BME280;11334;36.986;-121.936;2023-07-28T11:46:39;101171.34;;;14.51;89.56
22333;BME280;11334;36.986;-121.936;2023-07-28T11:49:13;101169.16;;;14.54;90.01
22333;BME280;11334;36.986;-121.936;2023-07-28T11:51:41;101165.34;;;14.49;89.54
22333;BME280;11334;36.986;-121.936;2023-07-28T11:54:17;101178.47;;;14.50;89.83
22333;BME280;11334;36.986;-121.936;2023-07-28T11:56:49;101181.66;;;14.53;89.68
22333;BME280;11334;36.986;-121.936;2023-07-28T11:59:17;101177.47;;;14.59;89.53
22333;BME280;11334;36.986;-121.936;2023-07-28T12:01:57;101184.84;;;14.49;89.89
22333;BME280;11334;36.986;-121.936;2023-07-28T12:04:26;101187.69;;;14.40;90.06
22333;BME280;11334;36.986;-121.936;2023-07-28T12:07:13;101187.84;;;14.46;89.95
22333;BME280;11334;36.986;-121.936;2023-07-28T12:12:15;101196.38;;;14.34;90.25
22333;BME280;11334;36.986;-121.936;2023-07-28T12:14:41;101193.00;;;14.40;90.17
22333;BME280;11334;36.986;-121.936;2023-07-28T12:17:15;101180.88;;;14.29;90.12
22333;BME280;11334;36.986;-121.936;2023-07-28T12:19:58;101196.38;;;14.34;90.30
22333;BME280;11334;36.986;-121.936;2023-07-28T12:22:29;101185.19;;;14.30;90.50
22333;BME280;11334;36.986;-121.936;2023-07-28T12:24:56;101189.34;;;14.33;89.49
22333;BME280;11334;36.986;-121.936;2023-07-28T12:27:22;101191.03;;;14.34;89.63